Time;durP1;ratioP1;P1;durP2;ratioP2;P2;SDS_P1;SDS_P2;PMS_P1;PMS_P2;Temp;Humidity;BMP_temperature;BMP_pressure;BME280_temperature;BME280_humidity;BME280_pressure;Samples;Min_cycle;Max_cycle;Signal;HPM_P1;HPM_P2
2023/08/22 00:00:37;;;;;;;5.87;3.50;;;19.60;99.90;;;;;;5014616;28;20494;-73
2023/08/22 00:03:05;;;;;;;5.70;2.90;;;19.60;99.90;;;;;;5014463;28;20444;-73
2023/08/22 00:05:34;;;;;;;4.90;3.40;;;19.60;99.90;;;;;;5014571;28;20451;-73
2023/08/22 00:08:05;;;;;;;5.23;4.13;;;19.60;99.90;;;;;;5012987;28;20625;-73
2023/08/22 00:10:34;;;;;;;4.07;2.90;;;19.60;99.90;;;;;;5013325;28;20451;-73
2023/08/22 00:13:04;;;;;;;5.70;3.67;;;19.50;99.90;;;;;;5013844;28;20527;-73
2023/08/22 00:15:32;;;;;;;5.97;3.73;;;19.50;99.90;;;;;;5012921;28;20471;-73
2023/08/22 00:18:01;;;;;;;5.80;3.47;;;19.50;99.90;;;;;;5012890;28;20451;-73
2023/08/22 00:20:29;;;;;;;8.83;4.00;;;19.50;99.90;;;;;;5014320;28;20440;-73
2023/08/22 00:22:57;;;;;;;7.70;4.73;;;19.40;99.90;;;;;;5014261;28;20446;-73
2023/08/22 00:25:25;;;;;;;8.20;4.60;;;19.40;99.90;;;;;;5012948;28;20871;-73
2023/08/22 00:27:53;;;;;;;7.67;4.60;;;19.40;99.90;;;;;;5013949;28;20444;-73
2023/08/22 00:30:23;;;;;;;5.07;3.97;;;19.40;99.90;;;;;;5012920;28;20447;-73
2023/08/22 00:32:51;;;;;;;7.03;4.17;;;19.40;99.90;;;;;;5013870;28;20440;-73
2023/08/22 00:35:19;;;;;;;7.80;4.87;;;19.30;99.90;;;;;;5013929;28;20470;-73
2023/08/22 00:37:47;;;;;;;5.93;4.23;;;19.30;99.90;;;;;;5013824;28;20440;-73
2023/08/22 00:40:15;;;;;;;4.67;3.77;;;19.30;99.90;;;;;;5013823;28;20450;-73
2023/08/22 00:42:44;;;;;;;5.90;4.07;;;19.30;99.90;;;;;;5012502;28;20522;-73
2023/08/22 00:45:12;;;;;;;5.77;4.10;;;19.30;99.90;;;;;;5012465;28;20556;-73
2023/08/22 00:47:41;;;;;;;8.20;4.37;;;19.20;99.90;;;;;;5012479;28;20448;-73
2023/08/22 00:50:11;;;;;;;7.10;4.93;;;19.20;99.90;;;;;;5012403;28;20451;-73
2023/08/22 00:52:39;;;;;;;6.73;3.87;;;19.20;99.90;;;;;;5012365;28;20499;-73
2023/08/22 00:55:08;;;;;;;7.13;4.30;;;19.20;99.90;;;;;;5012254;28;20518;-73
2023/08/22 00:57:37;;;;;;;6.23;4.10;;;19.20;99.90;;;;;;5013389;28;20494;-73
2023/08/22 01:00:10;;;;;;;7.03;4.03;;;19.20;99.90;;;;;;5012404;28;20436;-73
2023/08/22 01:02:39;;;;;;;8.37;4.13;;;19.20;99.90;;;;;;5012115;28;20472;-73
2023/08/22 01:05:11;;;;;;;6.60;4.00;;;19.20;99.90;;;;;;5012199;28;20475;-73
2023/08/22 01:07:47;;;;;;;8.90;4.93;;;19.10;99.90;;;;;;5012384;28;20475;-73
2023/08/22 01:10:20;;;;;;;8.70;4.00;;;19.10;99.90;;;;;;5012313;28;20947;-73
2023/08/22 01:12:54;;;;;;;6.53;4.20;;;19.10;99.90;;;;;;5012173;28;20443;-73
2023/08/22 01:15:30;;;;;;;10.70;3.97;;;19.10;99.90;;;;;;5012028;28;20518;-73
2023/08/22 01:18:01;;;;;;;4.80;3.70;;;19.10;99.90;;;;;;5012146;28;20933;-73
2023/08/22 01:20:31;;;;;;;8.90;4.20;;;19.10;99.90;;;;;;5013614;28;20916;-73
2023/08/22 01:23:01;;;;;;;4.23;3.40;;;19.10;99.90;;;;;;5012833;28;20460;-73
2023/08/22 01:25:30;;;;;;;6.27;3.67;;;19.10;99.90;;;;;;5015783;28;20830;-73
2023/08/22 01:28:09;;;;;;;6.40;3.90;;;19.10;99.90;;;;;;5016222;28;20451;-73
2023/08/22 01:30:49;;;;;;;7.23;4.30;;;19.10;99.90;;;;;;5017427;28;20499;-73
2023/08/22 01:33:24;;;;;;;6.10;3.87;;;19.00;99.90;;;;;;5017304;28;20443;-73
2023/08/22 01:35:55;;;;;;;5.03;3.90;;;19.00;99.90;;;;;;5015878;28;20435;-73
2023/08/22 01:38:28;;;;;;;5.10;4.27;;;19.00;99.90;;;;;;5015693;28;20475;-73
2023/08/22 01:40:58;;;;;;;4.00;3.60;;;19.00;99.90;;;;;;5016840;28;20403;-73
2023/08/22 01:43:26;;;;;;;5.90;3.60;;;19.00;99.90;;;;;;5015393;28;20476;-73
2023/08/22 01:45:54;;;;;;;8.07;4.03;;;19.00;99.90;;;;;;5015521;28;20502;-73
2023/08/22 01:48:22;;;;;;;4.40;3.20;;;19.00;99.90;;;;;;5015788;28;20498;-73
2023/08/22 01:50:50;;;;;;;6.73;3.80;;;19.00;99.90;;;;;;5015732;28;20487;-73
2023/08/22 01:53:18;;;;;;;5.00;4.07;;;19.00;99.90;;;;;;5015558;28;20483;-73
2023/08/22 01:55:48;;;;;;;5.30;3.40;;;19.00;99.90;;;;;;5015295;28;20526;-74
2023/08/22 01:58:16;;;;;;;4.23;3.37;;;19.00;99.90;;;;;;5015551;28;20447;-73
2023/08/22 02:00:44;;;;;;;4.17;3.33;;;18.90;99.90;;;;;;5015295;28;20517;-73
2023/08/22 02:03:12;;;;;;;4.40;3.40;;;18.90;99.90;;;;;;5017011;28;20570;-73
2023/08/22 02:05:41;;;;;;;3.80;3.20;;;18.90;99.90;;;;;;5016751;28;20435;-73
2023/08/22 02:08:10;;;;;;;3.90;3.60;;;18.90;99.90;;;;;;5015217;28;20957;-73
2023/08/22 02:10:38;;;;;;;4.50;3.60;;;18.80;99.90;;;;;;5015729;28;20481;-73
2023/08/22 02:13:08;;;;;;;6.23;3.80;;;18.80;99.90;;;;;;5015389;28;20837;-73
2023/08/22 02:15:36;;;;;;;7.27;4.00;;;18.80;99.90;;;;;;5016246;28;20527;-73
2023/08/22 02:18:05;;;;;;;4.70;3.50;;;18.80;99.90;;;;;;5014895;28;20856;-73
2023/08/22 02:20:33;;;;;;;5.27;3.60;;;18.80;99.90;;;;;;5015020;28;20502;-73
2023/08/22 02:23:02;;;;;;;5.10;3.27;;;18.80;99.90;;;;;;5015001;28;20575;-73
2023/08/22 02:25:32;;;;;;;5.73;3.47;;;18.80;99.90;;;;;;5015312;28;21050;-73
2023/08/22 02:28:01;;;;;;;6.03;3.77;;;18.80;99.90;;;;;;5014745;28;20448;-73
2023/08/22 02:30:32;;;;;;;5.13;3.83;;;18.70;99.90;;;;;;5016269;28;20529;-73
2023/08/22 02:33:00;;;;;;;7.30;4.63;;;18.70;99.90;;;;;;5015944;28;20486;-73
2023/08/22 02:35:29;;;;;;;5.73;3.23;;;18.70;99.90;;;;;;5014108;28;20474;-73
2023/08/22 02:37:57;;;;;;;6.70;3.50;;;18.70;99.90;;;;;;5014629;28;20547;-73
2023/08/22 02:40:25;;;;;;;4.87;3.50;;;18.70;99.90;;;;;;5015876;28;20486;-73
2023/08/22 02:42:53;;;;;;;5.70;3.80;;;18.70;99.90;;;;;;5014799;28;20491;-73
2023/08/22 02:45:21;;;;;;;4.33;3.57;;;18.60;99.90;;;;;;5014574;28;20813;-73
2023/08/22 02:47:53;;;;;;;8.03;4.53;;;18.60;99.90;;;;;;5015731;28;20451;-73
2023/08/22 02:50:23;;;;;;;6.13;4.80;;;18.60;99.90;;;;;;5014341;28;20423;-73
2023/08/22 02:52:52;;;;;;;8.73;4.13;;;18.60;99.90;;;;;;5014299;28;20986;-73
2023/08/22 02:55:20;;;;;;;6.33;3.97;;;18.60;99.90;;;;;;5014057;28;20471;-73
2023/08/22 02:57:48;;;;;;;4.00;3.60;;;18.60;99.90;;;;;;5014057;28;20455;-73
2023/08/22 03:00:18;;;;;;;5.13;3.73;;;18.60;99.90;;;;;;5015376;28;20481;-73
2023/08/22 03:02:46;;;;;;;4.33;3.80;;;18.60;99.90;;;;;;5014343;28;20468;-73
2023/08/22 03:05:15;;;;;;;5.97;3.97;;;18.50;99.90;;;;;;5015315;28;20466;-73
2023/08/22 03:07:45;;;;;;;5.07;3.90;;;18.50;99.90;;;;;;5014097;28;20842;-73
2023/08/22 03:10:15;;;;;;;5.10;3.90;;;18.50;99.90;;;;;;5014144;28;20447;-73
2023/08/22 03:12:44;;;;;;;6.60;4.17;;;18.50;99.90;;;;;;5014000;28;20430;-73
2023/08/22 03:15:12;;;;;;;4.90;4.50;;;18.50;99.90;;;;;;5013978;28;20562;-73
2023/08/22 03:17:42;;;;;;;7.33;4.33;;;18.50;99.90;;;;;;5013823;28;20427;-73
2023/08/22 03:20:11;;;;;;;6.53;3.67;;;18.50;99.90;;;;;;5013817;28;20448;-73
2023/08/22 03:22:42;;;;;;;6.33;3.80;;;18.50;99.90;;;;;;5013761;28;20578;-73
2023/08/22 03:25:10;;;;;;;4.03;3.63;;;18.50;99.90;;;;;;5013650;28;20468;-73
2023/08/22 03:27:40;;;;;;;4.40;3.70;;;18.50;99.90;;;;;;5013691;28;20865;-73
2023/08/22 03:30:10;;;;;;;6.23;4.30;;;18.50;99.90;;;;;;5013586;28;20458;-73
2023/08/22 03:32:38;;;;;;;6.77;4.10;;;18.50;99.90;;;;;;5013514;28;20547;-73
2023/08/22 03:35:08;;;;;;;3.90;3.60;;;18.40;99.90;;;;;;5013479;28;20496;-73
2023/08/22 03:37:41;;;;;;;6.43;4.00;;;18.40;99.90;;;;;;5013517;28;20447;-73
2023/08/22 03:40:12;;;;;;;5.50;4.10;;;18.40;99.90;;;;;;5014220;28;20430;-73
2023/08/22 03:42:40;;;;;;;4.33;3.93;;;18.40;99.90;;;;;;5013218;28;20471;-73
2023/08/22 03:45:10;;;;;;;5.43;3.80;;;18.40;99.90;;;;;;5013159;28;20471;-73
2023/08/22 03:47:39;;;;;;;8.57;4.17;;;18.40;99.90;;;;;;5012754;28;20506;-73
2023/08/22 03:50:08;;;;;;;9.70;4.17;;;18.30;99.90;;;;;;5013417;28;20539;-73
2023/08/22 03:52:36;;;;;;;8.13;4.67;;;18.30;99.90;;;;;;5013125;28;20829;-73
2023/08/22 03:55:07;;;;;;;7.33;4.47;;;18.30;99.90;;;;;;5013064;28;20468;-73
2023/08/22 03:57:35;;;;;;;8.27;5.13;;;18.30;99.90;;;;;;5013259;28;20796;-73
2023/08/22 04:00:04;;;;;;;6.80;5.20;;;18.30;99.90;;;;;;5014575;28;20464;-73
2023/08/22 04:02:41;;;;;;;5.40;4.90;;;18.30;99.90;;;;;;5014405;28;20462;-73
2023/08/22 04:05:10;;;;;;;5.97;4.72;;;18.30;99.90;;;;;;5011737;28;20454;-73
2023/08/22 04:07:38;;;;;;;4.47;4.03;;;18.40;99.90;;;;;;5014418;28;20268;-73
2023/08/22 04:10:09;;;;;;;5.00;4.40;;;18.40;99.90;;;;;;5014581;28;20439;-73
2023/08/22 04:12:37;;;;;;;6.10;4.40;;;18.40;99.90;;;;;;5012863;28;20446;-73
2023/08/22 04:15:06;;;;;;;5.30;4.60;;;18.40;99.90;;;;;;5013985;28;20812;-73
2023/08/22 04:17:35;;;;;;;5.47;4.57;;;18.30;99.90;;;;;;5012650;28;20474;-73
2023/08/22 04:20:04;;;;;;;6.30;5.17;;;18.30;99.90;;;;;;5012682;28;20945;-73
2023/08/22 04:22:32;;;;;;;7.20;5.03;;;18.30;99.90;;;;;;5014332;28;20475;-73
2023/08/22 04:25:01;;;;;;;7.03;5.07;;;18.30;99.90;;;;;;5012937;28;21015;-73
2023/08/22 04:27:32;;;;;;;7.30;4.60;;;18.30;99.90;;;;;;5012788;28;20452;-73
2023/08/22 04:30:01;;;;;;;6.60;5.23;;;18.30;99.90;;;;;;5012570;28;20496;-73
2023/08/22 04:32:29;;;;;;;8.40;4.80;;;18.30;99.90;;;;;;5012607;28;20458;-73
2023/08/22 04:34:58;;;;;;;7.10;5.20;;;18.30;99.90;;;;;;5012523;28;20470;-73
2023/08/22 04:37:26;;;;;;;5.10;4.67;;;18.30;99.90;;;;;;5012530;28;20447;-73
2023/08/22 04:39:54;;;;;;;7.87;5.60;;;18.30;99.90;;;;;;5012483;28;20980;-73
2023/08/22 04:42:36;;;;;;;6.87;6.17;;;18.30;99.90;;;;;;5012503;28;20466;-73
2023/08/22 04:45:08;;;;;;;7.50;5.93;;;18.20;99.90;;;;;;5012218;28;20483;-73
2023/08/22 04:47:36;;;;;;;6.97;6.17;;;18.30;99.90;;;;;;5012632;28;20486;-73
2023/08/22 04:50:06;;;;;;;6.50;5.90;;;18.30;99.90;;;;;;5012365;28;20854;-73
2023/08/22 04:52:35;;;;;;;6.63;5.57;;;18.30;99.90;;;;;;5012323;28;20502;-73
2023/08/22 04:55:04;;;;;;;5.90;5.30;;;18.20;99.90;;;;;;5012538;28;20514;-73
2023/08/22 04:57:33;;;;;;;6.53;4.80;;;18.30;99.90;;;;;;5012654;28;20534;-73
2023/08/22 05:00:04;;;;;;;7.10;5.10;;;18.30;99.90;;;;;;5016466;28;20418;-73
2023/08/22 05:02:32;;;;;;;6.90;5.20;;;18.30;99.90;;;;;;5016586;28;20501;-73
2023/08/22 05:05:01;;;;;;;6.50;5.60;;;18.30;99.90;;;;;;5017400;28;20479;-73
2023/08/22 05:07:30;;;;;;;6.50;5.90;;;18.30;99.90;;;;;;5016239;28;20429;-73
2023/08/22 05:09:58;;;;;;;5.20;4.70;;;18.30;99.90;;;;;;5017512;28;20494;-73
2023/08/22 05:12:26;;;;;;;6.07;5.50;;;18.30;99.90;;;;;;5016202;28;20502;-74
2023/08/22 05:14:56;;;;;;;6.17;5.30;;;18.30;99.90;;;;;;5017488;28;20523;-73
2023/08/22 05:17:25;;;;;;;8.23;5.67;;;18.30;99.90;;;;;;5017732;28;20861;-73
2023/08/22 05:19:54;;;;;;;6.20;4.90;;;18.30;99.90;;;;;;5016247;28;20466;-73
2023/08/22 05:22:23;;;;;;;6.93;4.20;;;18.30;99.90;;;;;;5016034;28;20423;-73
2023/08/22 05:24:51;;;;;;;7.13;5.70;;;18.30;99.90;;;;;;5015906;28;20592;-74
2023/08/22 05:27:21;;;;;;;11.30;10.27;;;18.30;99.90;;;;;;5015880;28;20490;-74
2023/08/22 05:29:49;;;;;;;7.53;6.80;;;18.30;99.90;;;;;;5015830;28;20862;-74
2023/08/22 05:32:17;;;;;;;10.10;6.03;;;18.40;99.90;;;;;;5015775;28;20506;-74
2023/08/22 05:34:47;;;;;;;6.30;5.00;;;18.40;99.90;;;;;;5015678;28;20836;-74
2023/08/22 05:37:15;;;;;;;7.70;5.00;;;18.40;99.90;;;;;;5015727;28;20444;-73
2023/08/22 05:39:43;;;;;;;5.60;5.03;;;18.40;99.90;;;;;;5015727;28;20456;-73
2023/08/22 05:42:11;;;;;;;6.03;5.40;;;18.40;99.90;;;;;;5016899;28;20578;-73
2023/08/22 05:44:40;;;;;;;5.70;4.80;;;18.40;99.90;;;;;;5015508;28;20475;-73
2023/08/22 05:47:10;;;;;;;5.70;5.20;;;18.50;99.90;;;;;;5015751;28;20474;-74
2023/08/22 05:49:43;;;;;;;5.53;5.03;;;18.50;99.90;;;;;;5015518;28;20482;-74
2023/08/22 05:52:13;;;;;;;7.40;4.87;;;18.50;99.90;;;;;;5016439;28;20418;-75
2023/08/22 05:54:43;;;;;;;5.30;4.60;;;18.50;99.90;;;;;;5015323;28;20446;-76
2023/08/22 05:57:11;;;;;;;5.00;4.60;;;18.50;99.90;;;;;;5015150;28;20463;-76
2023/08/22 05:59:39;;;;;;;5.17;4.70;;;18.50;99.90;;;;;;5015348;28;20874;-76
2023/08/22 06:02:08;;;;;;;5.40;4.90;;;18.50;99.90;;;;;;5015153;28;20422;-75
2023/08/22 06:04:36;;;;;;;5.47;5.00;;;18.60;99.90;;;;;;5015431;28;20475;-76
2023/08/22 06:07:07;;;;;;;7.43;5.00;;;18.60;99.90;;;;;;5015255;28;20460;-75
2023/08/22 06:09:36;;;;;;;6.93;6.10;;;18.60;99.90;;;;;;5014168;28;20887;-76
2023/08/22 06:12:05;;;;;;;7.00;6.30;;;18.60;99.90;;;;;;5015258;28;20490;-76
2023/08/22 06:14:36;;;;;;;8.43;7.63;;;18.60;99.90;;;;;;5015093;28;20939;-76
2023/08/22 06:17:04;;;;;;;9.23;7.27;;;18.70;99.90;;;;;;5015088;28;20455;-76
2023/08/22 06:19:32;;;;;;;9.60;8.60;;;18.70;99.90;;;;;;5015226;28;20444;-76
2023/08/22 06:22:01;;;;;;;12.67;7.60;;;18.70;99.90;;;;;;5014999;28;20476;-76
2023/08/22 06:24:29;;;;;;;12.63;10.03;;;18.80;99.90;;;;;;5014719;28;21015;-76
2023/08/22 06:26:59;;;;;;;7.87;6.23;;;18.80;99.90;;;;;;5015027;28;20427;-76
2023/08/22 06:29:27;;;;;;;10.13;8.10;;;18.80;99.90;;;;;;5016007;28;20779;-75
2023/08/22 06:31:55;;;;;;;7.80;7.00;;;18.90;99.90;;;;;;5016118;28;20805;-76
2023/08/22 06:34:23;;;;;;;8.30;7.23;;;18.90;99.90;;;;;;5016051;28;20484;-75
2023/08/22 06:36:52;;;;;;;9.93;6.80;;;18.90;99.90;;;;;;5014729;28;20494;-75
2023/08/22 06:39:20;;;;;;;9.60;6.77;;;18.90;99.90;;;;;;5014621;28;20483;-76
2023/08/22 06:41:48;;;;;;;10.60;9.03;;;19.00;99.90;;;;;;5014473;28;20442;-76
2023/08/22 06:44:25;;;;;;;8.00;6.50;;;19.10;99.90;;;;;;5014299;28;20475;-76
2023/08/22 06:46:53;;;;;;;6.57;5.97;;;19.30;99.90;;;;;;5015855;28;20809;-76
2023/08/22 06:49:21;;;;;;;7.40;6.77;;;19.50;99.90;;;;;;5014554;28;20448;-75
2023/08/22 06:51:49;;;;;;;7.30;6.47;;;19.70;99.90;;;;;;5014431;28;20444;-76
2023/08/22 06:54:21;;;;;;;7.40;6.63;;;19.80;99.90;;;;;;5014283;28;20991;-76
2023/08/22 06:56:49;;;;;;;8.00;7.30;;;20.00;99.90;;;;;;5014587;28;20551;-76
2023/08/22 06:59:17;;;;;;;6.20;5.53;;;20.20;99.90;;;;;;5015334;28;20472;-75
2023/08/22 07:01:47;;;;;;;7.60;6.60;;;20.40;99.90;;;;;;5014553;28;20450;-75
2023/08/22 07:04:15;;;;;;;7.77;6.67;;;20.50;99.90;;;;;;5015615;28;20526;-76
2023/08/22 07:06:45;;;;;;;6.67;5.87;;;20.70;99.90;;;;;;5014274;28;20570;-76
2023/08/22 07:09:13;;;;;;;8.67;6.50;;;20.80;99.90;;;;;;5015438;28;20808;-76
2023/08/22 07:11:41;;;;;;;7.50;5.77;;;21.00;99.90;;;;;;5015362;28;20452;-75
2023/08/22 07:14:10;;;;;;;7.80;6.07;;;21.10;99.90;;;;;;5015267;28;20814;-73
2023/08/22 07:16:38;;;;;;;6.40;5.90;;;21.20;99.90;;;;;;5016043;28;20435;-74
2023/08/22 07:19:07;;;;;;;7.77;6.60;;;21.30;99.90;;;;;;5014068;28;21076;-74
2023/08/22 07:21:36;;;;;;;7.83;6.80;;;21.40;99.90;;;;;;5014144;28;20452;-74
2023/08/22 07:24:04;;;;;;;7.80;6.30;;;21.50;99.90;;;;;;5015149;28;20539;-74
2023/08/22 07:26:32;;;;;;;6.90;6.30;;;21.60;99.90;;;;;;5015249;28;20574;-74
2023/08/22 07:29:00;;;;;;;8.80;7.57;;;21.70;99.90;;;;;;5015450;28;20436;-74
2023/08/22 07:31:29;;;;;;;7.30;6.60;;;21.80;99.90;;;;;;5014927;28;20506;-74
2023/08/22 07:33:57;;;;;;;7.77;6.20;;;21.90;99.90;;;;;;5013667;28;20468;-73
2023/08/22 07:36:28;;;;;;;6.83;6.20;;;22.00;99.90;;;;;;5013609;28;20858;-75
2023/08/22 07:38:58;;;;;;;6.80;6.07;;;22.10;99.90;;;;;;5013698;28;20535;-74
2023/08/22 07:41:26;;;;;;;8.00;6.30;;;22.20;99.90;;;;;;5014728;28;20454;-74
2023/08/22 07:43:54;;;;;;;8.03;6.37;;;22.30;99.90;;;;;;5015105;28;20495;-74
2023/08/22 07:46:23;;;;;;;9.40;6.00;;;22.40;99.90;;;;;;5013393;28;20518;-74
2023/08/22 07:48:51;;;;;;;6.93;5.97;;;22.50;99.90;;;;;;5014830;28;20937;-74
2023/08/22 07:51:20;;;;;;;7.50;6.30;;;22.60;99.90;;;;;;5014924;28;20447;-73
2023/08/22 07:53:49;;;;;;;7.03;6.33;;;22.60;99.90;;;;;;5015031;28;20510;-74
2023/08/22 07:56:17;;;;;;;8.23;7.10;;;22.70;99.90;;;;;;5014611;28;20522;-74
2023/08/22 07:58:47;;;;;;;8.00;6.87;;;22.80;99.90;;;;;;5014774;28;20494;-74
2023/08/22 08:01:16;;;;;;;7.57;6.60;;;22.90;99.90;;;;;;5014928;28;20475;-74
2023/08/22 08:03:44;;;;;;;7.60;6.60;;;22.90;99.90;;;;;;5013395;28;20474;-74
2023/08/22 08:06:12;;;;;;;7.60;6.80;;;23.00;99.90;;;;;;5014164;28;20471;-73
2023/08/22 08:08:40;;;;;;;6.27;5.60;;;23.10;99.90;;;;;;5014210;28;21040;-74
2023/08/22 08:11:10;;;;;;;8.43;6.30;;;23.20;99.90;;;;;;5013190;28;20491;-74
2023/08/22 08:13:38;;;;;;;7.13;6.27;;;23.30;99.90;;;;;;5014281;28;20459;-74
2023/08/22 08:16:07;;;;;;;7.50;5.63;;;23.30;99.90;;;;;;5014373;28;20440;-74
2023/08/22 08:18:36;;;;;;;7.17;5.93;;;23.30;99.90;;;;;;5014039;28;20443;-74
2023/08/22 08:21:04;;;;;;;6.20;5.60;;;23.40;99.90;;;;;;5014263;28;20898;-74
2023/08/22 08:23:32;;;;;;;6.30;5.70;;;23.40;99.90;;;;;;5013857;28;20510;-74
2023/08/22 08:26:01;;;;;;;7.07;5.90;;;23.50;99.90;;;;;;5013959;28;20468;-74
2023/08/22 08:28:31;;;;;;;8.60;5.23;;;23.60;99.90;;;;;;5014215;28;20432;-74
2023/08/22 08:30:59;;;;;;;11.30;5.07;;;23.70;99.90;;;;;;5012661;28;20443;-74
2023/08/22 08:33:27;;;;;;;6.13;5.13;;;23.70;99.90;;;;;;5011874;28;20440;-74
2023/08/22 08:35:55;;;;;;;5.43;4.93;;;23.70;99.90;;;;;;5013733;28;20999;-74
2023/08/22 08:38:23;;;;;;;7.00;4.77;;;23.70;99.90;;;;;;5013833;28;20490;-74
2023/08/22 08:40:53;;;;;;;5.40;4.30;;;23.70;99.90;;;;;;5012874;28;20458;-73
2023/08/22 08:43:23;;;;;;;6.23;4.63;;;23.70;99.90;;;;;;5013938;28;20530;-74
2023/08/22 08:45:52;;;;;;;5.07;4.57;;;23.80;99.90;;;;;;5012485;28;20495;-74
2023/08/22 08:48:23;;;;;;;7.23;4.17;;;23.80;99.90;;;;;;5012850;28;20463;-74
2023/08/22 08:50:51;;;;;;;5.43;3.80;;;23.90;99.90;;;;;;5014143;28;20478;-74
2023/08/22 08:53:20;;;;;;;6.90;5.50;;;23.90;99.90;;;;;;5012495;28;20542;-75
2023/08/22 08:55:48;;;;;;;6.07;5.27;;;23.90;99.90;;;;;;5013893;28;20498;-74
2023/08/22 08:58:17;;;;;;;7.63;4.53;;;23.90;99.90;;;;;;5013727;28;20423;-74
2023/08/22 09:00:45;;;;;;;4.97;4.47;;;24.00;99.90;;;;;;5013952;28;20803;-75
2023/08/22 09:03:15;;;;;;;7.57;4.10;;;24.00;99.90;;;;;;5013473;28;20428;-75
2023/08/22 09:05:43;;;;;;;5.03;4.17;;;23.90;99.90;;;;;;5013890;28;20467;-74
2023/08/22 09:08:16;;;;;;;3.70;3.30;;;23.90;99.90;;;;;;5012189;28;20443;-74
2023/08/22 09:10:50;;;;;;;3.70;2.63;;;24.00;99.90;;;;;;5013516;28;20455;-74
2023/08/22 09:13:25;;;;;;;3.63;2.73;;;24.00;99.90;;;;;;5013577;28;20447;-74
2023/08/22 09:16:09;;;;;;;3.73;2.80;;;24.10;99.90;;;;;;5013618;28;20506;-74
2023/08/22 09:18:42;;;;;;;4.00;2.40;;;24.10;99.90;;;;;;5012773;28;20454;-74
2023/08/22 09:21:11;;;;;;;4.13;3.10;;;24.20;99.90;;;;;;5013250;28;20818;-75
2023/08/22 09:23:42;;;;;;;3.87;3.20;;;24.20;99.90;;;;;;5013200;28;20494;-75
2023/08/22 09:26:11;;;;;;;3.43;2.57;;;24.20;99.90;;;;;;5012969;28;20518;-75
2023/08/22 09:28:39;;;;;;;3.23;2.50;;;24.30;99.90;;;;;;5014852;28;20502;-75
2023/08/22 09:31:08;;;;;;;3.70;1.90;;;24.30;99.90;;;;;;5012847;28;20452;-74
2023/08/22 09:33:47;;;;;;;3.10;2.00;;;24.30;99.90;;;;;;5014748;28;20514;-75
2023/08/22 09:36:19;;;;;;;4.30;2.67;;;24.40;99.90;;;;;;5013456;28;20436;-75
2023/08/22 09:38:53;;;;;;;5.50;2.60;;;24.50;99.90;;;;;;5013071;28;20448;-75
2023/08/22 09:41:22;;;;;;;2.93;1.90;;;24.50;99.90;;;;;;5013834;28;20856;-75
2023/08/22 09:43:57;;;;;;;2.57;1.93;;;24.50;99.90;;;;;;5015061;28;20459;-75
2023/08/22 09:46:25;;;;;;;2.80;2.37;;;24.50;99.90;;;;;;5017771;28;20881;-75
2023/08/22 09:48:57;;;;;;;3.53;2.07;;;24.50;99.90;;;;;;5018008;28;20436;-75
2023/08/22 09:51:26;;;;;;;3.00;2.00;;;24.60;99.90;;;;;;5017809;28;20424;-75
2023/08/22 09:53:59;;;;;;;5.77;2.53;;;24.60;99.90;;;;;;5017970;28;21124;-76
2023/08/22 09:56:28;;;;;;;3.27;2.00;;;24.60;99.90;;;;;;5017654;28;20541;-75
2023/08/22 09:58:56;;;;;;;2.73;1.57;;;24.60;99.90;;;;;;5016649;28;20856;-75
2023/08/22 10:01:26;;;;;;;2.40;1.67;;;24.60;99.90;;;;;;5016406;28;20451;-75
2023/08/22 10:04:01;;;;;;;2.97;1.43;;;24.60;99.90;;;;;;5018151;28;20487;-75
2023/08/22 10:06:31;;;;;;;2.20;1.30;;;24.60;99.90;;;;;;5017574;28;20463;-75
2023/08/22 10:09:13;;;;;;;4.00;1.90;;;24.60;99.90;;;;;;5017629;28;20420;-75
2023/08/22 10:11:44;;;;;;;6.20;1.90;;;24.60;99.90;;;;;;5017829;28;20550;-75
2023/08/22 10:14:24;;;;;;;2.00;1.43;;;24.60;99.90;;;;;;5017808;28;20456;-75
2023/08/22 10:16:54;;;;;;;2.50;1.43;;;24.70;99.90;;;;;;5017865;28;20769;-75
2023/08/22 10:19:24;;;;;;;2.53;1.80;;;24.70;99.90;;;;;;5016518;28;20454;-75
2023/08/22 10:21:54;;;;;;;3.13;1.90;;;24.70;99.90;;;;;;5017270;28;20444;-75
2023/08/22 10:24:29;;;;;;;3.27;1.50;;;24.80;99.90;;;;;;5017219;28;20460;-75
2023/08/22 10:27:02;;;;;;;2.90;1.50;;;24.80;99.90;;;;;;5015973;28;20460;-75
2023/08/22 10:29:34;;;;;;;4.37;2.40;;;24.80;99.90;;;;;;5015816;28;20439;-75
2023/08/22 10:32:28;;;;;;;2.30;1.50;;;24.90;99.90;;;;;;5017442;28;20432;-75
2023/08/22 10:35:23;;;;;;;2.60;1.67;;;24.90;99.90;;;;;;5017555;28;20487;-75
2023/08/22 10:37:52;;;;;;;3.20;1.60;;;25.00;99.90;;;;;;5003453;28;20551;-75
2023/08/22 10:40:22;;;;;;;3.47;2.00;;;25.00;99.90;;;;;;5015760;28;20456;-75
2023/08/22 10:43:05;;;;;;;1.90;1.40;;;25.10;99.90;;;;;;5016694;28;20764;-75
2023/08/22 10:45:40;;;;;;;2.80;1.73;;;25.10;99.90;;;;;;5014559;28;20444;-75
2023/08/22 10:48:11;;;;;;;4.30;1.60;;;25.10;99.90;;;;;;5015848;28;20463;-75
2023/08/22 10:50:45;;;;;;;3.20;1.57;;;25.20;99.90;;;;;;5016233;28;20416;-75
2023/08/22 10:53:24;;;;;;;2.53;1.47;;;25.30;99.90;;;;;;5015642;28;20459;-75
2023/08/22 10:55:54;;;;;;;2.30;1.70;;;25.30;99.90;;;;;;5015163;28;20551;-76
2023/08/22 10:58:39;;;;;;;2.97;1.60;;;25.30;99.90;;;;;;5015781;28;20416;-75
2023/08/22 11:01:09;;;;;;;4.63;1.80;;;25.20;99.90;;;;;;5015830;28;20776;-75
2023/08/22 11:03:37;;;;;;;2.00;1.40;;;25.20;99.90;;;;;;5015617;28;20538;-76
2023/08/22 11:06:19;;;;;;;3.40;2.50;;;25.10;99.90;;;;;;5015244;28;20873;-75
2023/08/22 11:08:47;;;;;;;3.60;1.70;;;25.10;99.90;;;;;;5014140;28;20498;-75
2023/08/22 11:11:17;;;;;;;3.10;1.77;;;25.10;99.90;;;;;;5015559;28;20510;-76
2023/08/22 11:13:45;;;;;;;3.50;1.60;;;25.10;99.90;;;;;;5015112;28;20815;-76
2023/08/22 11:16:15;;;;;;;4.23;1.27;;;25.10;99.90;;;;;;5015108;28;20830;-76
2023/08/22 11:18:46;;;;;;;3.13;1.50;;;25.10;99.90;;;;;;5015350;28;20451;-75
2023/08/22 11:21:16;;;;;;;2.30;1.50;;;25.10;99.90;;;;;;5015364;28;20416;-76
2023/08/22 11:23:45;;;;;;;2.83;1.70;;;25.10;99.90;;;;;;5016144;28;20444;-76
2023/08/22 11:26:13;;;;;;;3.03;2.10;;;25.10;99.90;;;;;;5013926;28;20518;-75
2023/08/22 11:28:42;;;;;;;2.47;1.43;;;25.10;99.90;;;;;;5015005;28;20479;-75
2023/08/22 11:31:16;;;;;;;2.53;1.30;;;25.10;99.90;;;;;;5014163;28;20535;-75
2023/08/22 11:33:50;;;;;;;2.83;1.20;;;25.10;99.90;;;;;;5015319;28;20463;-75
2023/08/22 11:36:24;;;;;;;2.93;1.47;;;25.10;99.90;;;;;;5015067;28;20420;-75
2023/08/22 11:38:56;;;;;;;2.03;1.30;;;25.20;99.90;;;;;;5015878;28;20778;-75
2023/08/22 11:41:24;;;;;;;3.60;1.60;;;25.20;99.90;;;;;;5015739;28;20436;-75
2023/08/22 11:43:55;;;;;;;2.27;1.63;;;25.20;99.90;;;;;;5015026;28;20465;-75
2023/08/22 11:46:23;;;;;;;3.10;1.40;;;25.20;99.90;;;;;;5015062;28;20905;-75
2023/08/22 11:49:18;;;;;;;2.87;1.40;;;25.20;99.90;;;;;;4999373;28;20436;-75
2023/08/22 11:51:53;;;;;;;2.70;1.67;;;25.30;99.90;;;;;;5013486;28;20487;-75
2023/08/22 11:54:25;;;;;;;3.90;2.00;;;25.30;99.90;;;;;;5014657;28;21015;-75
2023/08/22 11:57:01;;;;;;;3.30;1.30;;;25.30;99.90;;;;;;5013269;28;20452;-75
2023/08/22 11:59:29;;;;;;;3.37;1.60;;;25.30;99.90;;;;;;5014559;28;20955;-75
2023/08/22 12:01:57;;;;;;;5.70;1.60;;;25.30;99.80;;;;;;5013228;28;20459;-75
2023/08/22 12:04:25;;;;;;;3.13;1.50;;;25.40;99.90;;;;;;5014299;28;20487;-76
2023/08/22 12:07:00;;;;;;;4.63;1.70;;;25.40;99.80;;;;;;5014478;28;20436;-74
2023/08/22 12:09:29;;;;;;;3.50;1.80;;;25.50;99.80;;;;;;5013894;28;20447;-75
2023/08/22 12:12:11;;;;;;;3.30;1.93;;;25.60;99.80;;;;;;5014448;28;20440;-75
2023/08/22 12:14:40;;;;;;;3.20;1.60;;;25.60;99.70;;;;;;5012865;28;20475;-74
2023/08/22 12:17:08;;;;;;;2.17;1.37;;;25.60;99.70;;;;;;5014091;28;20534;-75
2023/08/22 12:19:36;;;;;;;4.73;1.40;;;25.60;99.60;;;;;;5014920;28;20447;-75
2023/08/22 12:22:05;;;;;;;4.43;1.50;;;25.60;99.50;;;;;;5014056;28;20436;-75
2023/08/22 12:24:34;;;;;;;2.97;1.40;;;25.70;99.30;;;;;;5014029;28;20509;-76
2023/08/22 12:27:02;;;;;;;3.03;1.17;;;25.70;99.10;;;;;;5014043;28;20431;-75
2023/08/22 12:29:30;;;;;;;2.23;1.40;;;25.80;99.10;;;;;;5014081;28;20472;-75
2023/08/22 12:31:58;;;;;;;1.50;1.10;;;25.90;99.20;;;;;;5014043;28;20796;-75
2023/08/22 12:34:27;;;;;;;2.73;1.40;;;25.90;99.20;;;;;;5012986;28;20472;-75
2023/08/22 12:36:55;;;;;;;2.27;1.30;;;26.00;99.00;;;;;;5014321;28;20519;-75
2023/08/22 12:39:24;;;;;;;2.10;1.63;;;26.10;98.80;;;;;;5014071;28;20872;-76
2023/08/22 12:41:52;;;;;;;2.07;1.30;;;26.10;98.80;;;;;;5014295;28;20439;-75
2023/08/22 12:44:20;;;;;;;2.37;1.30;;;26.10;98.70;;;;;;5014139;28;20981;-75
2023/08/22 12:46:49;;;;;;;3.57;1.80;;;26.20;98.70;;;;;;5013084;28;20480;-75
2023/08/22 12:49:17;;;;;;;4.63;1.60;;;26.20;98.60;;;;;;5013931;28;20495;-75
2023/08/22 12:51:45;;;;;;;3.57;1.20;;;26.20;98.80;;;;;;5015632;28;20486;-76
2023/08/22 12:54:13;;;;;;;3.40;1.10;;;26.20;98.50;;;;;;5018314;28;20490;-75
2023/08/22 12:56:43;;;;;;;2.77;1.60;;;26.20;98.50;;;;;;5022389;28;20463;-75
2023/08/22 12:59:11;;;;;;;2.60;1.20;;;26.20;98.30;;;;;;5021312;28;20432;-75